createdAt,value
2018-08-23T00:00:01.992Z,0.00
2018-08-23T00:01:01.988Z,0.00
2018-08-23T00:02:02.010Z,0.00
2018-08-23T00:03:02.004Z,0.00
2018-08-23T00:04:01.990Z,0.00
2018-08-23T00:05:02.039Z,0.00
2018-08-23T00:06:01.987Z,0.00
2018-08-23T00:07:01.991Z,0.00
2018-08-23T00:08:02.018Z,0.00
2018-08-23T00:09:01.984Z,0.00
2018-08-23T00:10:02.015Z,0.00
2018-08-23T00:11:01.987Z,0.00
2018-08-23T00:12:01.983Z,0.00
2018-08-23T00:13:01.981Z,0.00
2018-08-23T00:14:01.986Z,0.00
2018-08-23T00:15:01.997Z,0.00
2018-08-23T00:16:01.981Z,0.00
2018-08-23T00:17:01.986Z,0.00
2018-08-23T00:18:02.000Z,0.00
2018-08-23T00:19:01.979Z,0.00
2018-08-23T00:20:02.017Z,0.00
2018-08-23T00:21:01.985Z,0.00
2018-08-23T00:22:01.986Z,0.00
2018-08-23T00:23:01.984Z,0.00
2018-08-23T00:24:01.978Z,0.00
2018-08-23T00:25:01.976Z,0.00
2018-08-23T00:26:01.976Z,0.00
2018-08-23T00:27:01.989Z,0.00
2018-08-23T00:28:01.992Z,0.00
2018-08-23T00:29:01.979Z,0.00
2018-08-23T00:30:01.979Z,0.00
2018-08-23T00:31:01.989Z,0.00
2018-08-23T00:32:01.973Z,0.00
2018-08-23T00:33:01.978Z,0.00
2018-08-23T00:34:01.984Z,0.00
2018-08-23T00:35:01.974Z,0.00
2018-08-23T00:36:01.973Z,0.00
2018-08-23T00:37:01.968Z,0.00
2018-08-23T00:38:01.966Z,0.00
2018-08-23T00:39:01.970Z,0.00
2018-08-23T00:40:01.966Z,0.00
2018-08-23T00:41:01.983Z,0.00
2018-08-23T00:42:01.974Z,0.00
2018-08-23T00:43:01.966Z,0.00
2018-08-23T00:44:01.979Z,0.00
2018-08-23T00:45:01.962Z,0.00
2018-08-23T00:46:01.967Z,0.00
2018-08-23T00:47:01.963Z,0.00
2018-08-23T00:48:01.960Z,0.00
2018-08-23T00:49:01.959Z,0.00
2018-08-23T00:50:01.965Z,0.00
2018-08-23T00:51:01.966Z,0.00
2018-08-23T00:52:01.960Z,0.00
2018-08-23T00:53:01.955Z,0.00
2018-08-23T00:54:02.001Z,0.00
2018-08-23T00:55:01.963Z,0.00
2018-08-23T00:56:01.955Z,0.00
2018-08-23T00:57:01.965Z,0.00
2018-08-23T00:58:01.953Z,0.00
2018-08-23T00:59:01.960Z,0.00
2018-08-23T01:00:01.951Z,0.00
2018-08-23T01:01:01.953Z,0.00
2018-08-23T01:02:01.949Z,0.00
2018-08-23T01:03:01.952Z,0.00
2018-08-23T01:04:01.948Z,0.00
2018-08-23T01:05:01.949Z,0.00
2018-08-23T01:06:01.964Z,0.00
2018-08-23T01:07:01.946Z,0.00
2018-08-23T01:08:01.948Z,0.00
2018-08-23T01:09:01.949Z,0.00
2018-08-23T01:10:01.957Z,0.00
2018-08-23T01:11:01.945Z,0.00
2018-08-23T01:12:01.946Z,0.00
2018-08-23T01:13:01.943Z,0.00
2018-08-23T01:14:01.941Z,0.00
2018-08-23T01:15:01.940Z,0.00
2018-08-23T01:16:01.941Z,0.00
2018-08-23T01:17:01.992Z,0.00
2018-08-23T01:18:01.937Z,0.00
2018-08-23T01:19:01.937Z,0.00
2018-08-23T01:20:01.941Z,0.00
2018-08-23T01:21:01.933Z,0.00
2018-08-23T01:22:01.932Z,0.00
2018-08-23T01:23:01.931Z,0.00
2018-08-23T01:24:01.946Z,0.00
2018-08-23T01:25:01.929Z,0.00
2018-08-23T01:26:01.929Z,0.00
2018-08-23T01:27:01.931Z,0.00
2018-08-23T01:28:01.932Z,0.00
2018-08-23T01:29:01.923Z,0.00
2018-08-23T01:30:01.932Z,0.00
2018-08-23T01:31:01.927Z,0.00
2018-08-23T01:32:01.926Z,0.00
2018-08-23T01:33:01.921Z,0.00
2018-08-23T01:34:01.923Z,0.00
2018-08-23T01:35:01.924Z,0.00
2018-08-23T01:36:01.923Z,0.00
2018-08-23T01:37:01.916Z,0.00
2018-08-23T01:38:01.920Z,0.00
2018-08-23T01:39:01.920Z,0.00
2018-08-23T01:40:01.912Z,0.00
2018-08-23T01:41:01.911Z,0.00
2018-08-23T01:42:01.916Z,0.00
2018-08-23T01:43:01.911Z,0.00
2018-08-23T01:44:01.915Z,0.00
2018-08-23T01:45:01.909Z,0.00
2018-08-23T01:46:01.912Z,0.00
2018-08-23T01:47:01.903Z,0.00
2018-08-23T01:48:01.909Z,0.00
2018-08-23T01:49:01.903Z,0.00
2018-08-23T01:50:01.906Z,0.00
2018-08-23T01:51:01.905Z,0.00
2018-08-23T01:52:01.898Z,0.00
2018-08-23T01:53:01.895Z,0.00
2018-08-23T01:54:01.896Z,0.00
2018-08-23T01:55:01.894Z,0.00
2018-08-23T01:56:01.892Z,0.00
2018-08-23T01:57:01.899Z,0.00
2018-08-23T01:58:01.896Z,0.00
2018-08-23T01:59:01.895Z,0.00
2018-08-23T02:00:01.891Z,0.00
2018-08-23T02:01:01.885Z,0.00
2018-08-23T02:02:01.889Z,0.00
2018-08-23T02:03:01.895Z,0.00
2018-08-23T02:04:01.883Z,0.00
2018-08-23T02:05:01.891Z,0.00
2018-08-23T02:06:01.882Z,0.00
2018-08-23T02:07:01.878Z,0.00
2018-08-23T02:08:01.876Z,0.00
2018-08-23T02:09:01.877Z,0.00
2018-08-23T02:10:01.875Z,0.00
2018-08-23T02:11:01.873Z,0.00
2018-08-23T02:12:01.870Z,0.00
2018-08-23T02:13:01.868Z,0.00
2018-08-23T02:14:01.873Z,0.00
2018-08-23T02:15:01.864Z,0.00
2018-08-23T02:16:01.867Z,0.00
2018-08-23T02:17:01.861Z,0.00
2018-08-23T02:18:01.864Z,0.00
2018-08-23T02:19:01.859Z,0.00
2018-08-23T02:20:01.857Z,0.00
2018-08-23T02:21:01.863Z,0.00
2018-08-23T02:22:01.853Z,0.00
2018-08-23T02:23:01.853Z,0.00
2018-08-23T02:24:01.854Z,0.00
2018-08-23T02:25:01.852Z,0.00
2018-08-23T02:26:01.853Z,0.00
2018-08-23T02:27:01.850Z,0.00
2018-08-23T02:28:01.845Z,0.00
2018-08-23T02:29:01.842Z,0.00
2018-08-23T02:30:01.847Z,0.00
2018-08-23T02:31:01.848Z,0.00
2018-08-23T02:32:01.843Z,0.00
2018-08-23T02:33:01.844Z,0.00
2018-08-23T02:34:01.847Z,0.00
2018-08-23T02:35:01.836Z,0.00
2018-08-23T02:36:01.832Z,0.00
2018-08-23T02:37:01.830Z,0.00
2018-08-23T02:38:01.833Z,0.00
2018-08-23T02:39:01.825Z,0.00
2018-08-23T02:40:01.830Z,0.00
2018-08-23T02:41:01.826Z,0.00
2018-08-23T02:42:01.824Z,0.00
2018-08-23T02:43:01.819Z,0.00
2018-08-23T02:44:01.824Z,0.00
2018-08-23T02:45:01.826Z,0.00
2018-08-23T02:46:01.814Z,0.00
2018-08-23T02:47:01.818Z,0.00
2018-08-23T02:48:01.811Z,0.00
2018-08-23T02:49:01.813Z,0.00
2018-08-23T02:50:01.808Z,0.00
2018-08-23T02:51:01.804Z,0.00
2018-08-23T02:52:01.815Z,0.00
2018-08-23T02:53:01.811Z,0.00
2018-08-23T02:54:01.798Z,0.00
2018-08-23T02:55:01.803Z,0.00
2018-08-23T02:56:01.803Z,0.00
2018-08-23T02:57:01.797Z,0.00
2018-08-23T02:58:01.792Z,0.00
2018-08-23T02:59:01.801Z,0.00
2018-08-23T03:00:01.794Z,0.00
2018-08-23T03:01:01.786Z,0.00
2018-08-23T03:02:01.784Z,0.00
2018-08-23T03:03:01.784Z,0.00
2018-08-23T03:04:01.785Z,0.00
2018-08-23T03:05:01.798Z,0.00
2018-08-23T03:06:01.778Z,0.00
2018-08-23T03:07:01.784Z,0.00
2018-08-23T03:08:01.782Z,0.00
2018-08-23T03:09:01.776Z,0.00
2018-08-23T03:10:01.768Z,0.00
2018-08-23T03:11:01.773Z,0.00
2018-08-23T03:12:01.774Z,0.00
2018-08-23T03:13:01.765Z,0.00
2018-08-23T03:14:01.820Z,0.00
2018-08-23T03:15:01.765Z,0.00
2018-08-23T03:16:01.760Z,0.00
2018-08-23T03:17:01.774Z,0.00
2018-08-23T03:18:01.759Z,0.00
2018-08-23T03:19:01.800Z,0.00
2018-08-23T03:20:01.756Z,0.00
2018-08-23T03:21:01.753Z,0.00
2018-08-23T03:22:01.749Z,0.00
2018-08-23T03:23:01.744Z,0.00
2018-08-23T03:24:01.749Z,0.00
2018-08-23T03:25:01.751Z,0.00
2018-08-23T03:26:01.741Z,0.00
2018-08-23T03:27:01.744Z,0.00
2018-08-23T03:28:01.743Z,0.00
2018-08-23T03:29:01.741Z,0.00
2018-08-23T03:30:01.729Z,0.00
2018-08-23T03:31:01.728Z,0.00
2018-08-23T03:32:01.740Z,0.00
2018-08-23T03:33:01.724Z,0.00
2018-08-23T03:34:01.720Z,0.00
2018-08-23T03:35:01.730Z,0.00
2018-08-23T03:36:01.723Z,0.00
2018-08-23T03:37:01.732Z,0.00
2018-08-23T03:38:01.713Z,0.00
2018-08-23T03:39:01.710Z,0.00
2018-08-23T03:40:01.712Z,0.00
2018-08-23T03:41:01.706Z,0.00
2018-08-23T03:42:01.756Z,0.00
2018-08-23T03:43:01.702Z,0.00
2018-08-23T03:44:01.699Z,0.00
2018-08-23T03:45:01.700Z,0.00
2018-08-23T03:46:01.700Z,0.00
2018-08-23T03:47:01.692Z,0.00
2018-08-23T03:48:01.696Z,0.00
2018-08-23T03:49:01.694Z,0.00
2018-08-23T03:50:01.691Z,0.00
2018-08-23T03:51:01.768Z,0.00
2018-08-23T03:52:01.689Z,0.00
2018-08-23T03:53:01.684Z,0.00
2018-08-23T03:54:01.684Z,0.00
2018-08-23T03:55:01.744Z,0.00
2018-08-23T03:56:01.675Z,0.00
2018-08-23T03:57:01.672Z,0.00
2018-08-23T03:58:01.681Z,0.00
2018-08-23T03:59:01.668Z,0.00
2018-08-23T04:00:01.671Z,0.00
2018-08-23T04:01:01.669Z,0.00
2018-08-23T04:02:01.660Z,0.00
2018-08-23T04:03:01.659Z,0.00
2018-08-23T04:04:01.657Z,0.00
2018-08-23T04:05:01.660Z,0.00
2018-08-23T04:06:01.649Z,0.00
2018-08-23T04:07:01.654Z,0.00
2018-08-23T04:08:01.646Z,0.00
2018-08-23T04:09:01.644Z,0.00
2018-08-23T04:10:01.645Z,0.00
2018-08-23T04:11:01.644Z,0.00
2018-08-23T04:12:01.639Z,0.00
2018-08-23T04:13:01.638Z,0.00
2018-08-23T04:14:01.635Z,0.00
2018-08-23T04:15:01.637Z,0.00
2018-08-23T04:16:01.629Z,0.00
2018-08-23T04:17:01.626Z,0.00
2018-08-23T04:18:01.626Z,0.00
2018-08-23T04:19:01.620Z,0.00
2018-08-23T04:20:01.617Z,0.00
2018-08-23T04:21:01.617Z,0.00
2018-08-23T04:22:01.621Z,0.00
2018-08-23T04:23:01.691Z,0.00
2018-08-23T04:24:01.610Z,0.00
2018-08-23T04:25:01.605Z,0.00
2018-08-23T04:26:01.605Z,0.00
2018-08-23T04:27:01.605Z,0.00
2018-08-23T04:28:01.600Z,0.00
2018-08-23T04:29:01.597Z,0.00
2018-08-23T04:30:01.597Z,0.00
2018-08-23T04:31:01.595Z,0.00
2018-08-23T04:32:01.595Z,0.00
2018-08-23T04:33:01.587Z,0.00
2018-08-23T04:34:01.586Z,0.00
2018-08-23T04:35:01.595Z,0.00
2018-08-23T04:36:01.579Z,0.00
2018-08-23T04:37:01.576Z,0.00
2018-08-23T04:38:01.580Z,0.00
2018-08-23T04:39:01.573Z,0.00
2018-08-23T04:40:01.579Z,0.00
2018-08-23T04:41:01.574Z,0.00
2018-08-23T04:42:01.570Z,5.63
2018-08-23T04:43:01.649Z,5.63
2018-08-23T04:44:01.563Z,5.63
2018-08-23T04:45:01.577Z,5.63
2018-08-23T04:46:01.558Z,5.63
2018-08-23T04:47:01.555Z,5.63
2018-08-23T04:48:01.557Z,5.63
2018-08-23T04:49:01.551Z,5.63
2018-08-23T04:50:01.598Z,5.63
2018-08-23T04:51:01.560Z,5.63
2018-08-23T04:52:01.545Z,5.63
2018-08-23T04:53:01.542Z,5.63
2018-08-23T04:54:01.538Z,5.63
2018-08-23T04:55:01.537Z,11.25
2018-08-23T04:56:01.613Z,11.25
2018-08-23T04:57:01.529Z,11.25
2018-08-23T04:58:01.536Z,11.25
2018-08-23T04:59:01.538Z,11.25
2018-08-23T05:00:01.561Z,11.25
2018-08-23T05:01:01.520Z,11.25
2018-08-23T05:02:01.525Z,11.25
2018-08-23T05:03:01.517Z,11.25
2018-08-23T05:04:01.672Z,11.25
2018-08-23T05:05:01.519Z,11.25
2018-08-23T05:06:01.581Z,11.25
2018-08-23T05:07:01.508Z,16.88
2018-08-23T05:08:01.514Z,16.88
2018-08-23T05:09:01.503Z,16.88
2018-08-23T05:10:01.531Z,16.88
2018-08-23T05:11:01.500Z,16.88
2018-08-23T05:12:01.499Z,16.88
2018-08-23T05:13:01.501Z,16.88
2018-08-23T05:14:01.553Z,22.50
2018-08-23T05:15:01.493Z,22.50
2018-08-23T05:16:01.488Z,22.50
2018-08-23T05:17:01.487Z,22.50
2018-08-23T05:18:01.488Z,22.50
2018-08-23T05:19:01.592Z,22.50
2018-08-23T05:20:01.484Z,28.13
2018-08-23T05:21:01.482Z,28.13
2018-08-23T05:22:01.478Z,22.50
2018-08-23T05:23:01.511Z,22.50
2018-08-23T05:24:01.474Z,22.50
2018-08-23T05:25:01.468Z,22.50
2018-08-23T05:26:01.469Z,28.13
2018-08-23T05:27:01.469Z,28.13
2018-08-23T05:28:01.465Z,28.13
2018-08-23T05:29:01.465Z,28.13
2018-08-23T05:30:01.456Z,28.13
2018-08-23T05:31:01.463Z,28.13
2018-08-23T05:32:01.453Z,28.13
2018-08-23T05:33:01.453Z,28.13
2018-08-23T05:34:01.449Z,28.13
2018-08-23T05:35:01.445Z,33.75
2018-08-23T05:36:01.444Z,33.75
2018-08-23T05:37:01.442Z,33.75
2018-08-23T05:38:01.447Z,33.75
2018-08-23T05:39:01.438Z,33.75
2018-08-23T05:40:01.446Z,33.75
2018-08-23T05:41:01.437Z,39.38
2018-08-23T05:42:01.431Z,39.38
2018-08-23T05:43:01.432Z,39.38
2018-08-23T05:44:01.432Z,39.38
2018-08-23T05:45:01.430Z,39.38
2018-08-23T05:46:01.423Z,39.38
2018-08-23T05:47:01.419Z,39.38
2018-08-23T05:48:01.418Z,39.38
2018-08-23T05:49:01.417Z,39.38
2018-08-23T05:50:01.414Z,39.38
2018-08-23T05:51:01.411Z,45.00
2018-08-23T05:52:01.416Z,45.00
2018-08-23T05:53:01.411Z,50.63
2018-08-23T05:54:01.406Z,50.63
2018-08-23T05:55:01.407Z,50.63
2018-08-23T05:56:01.410Z,45.00
2018-08-23T05:57:01.401Z,50.63
2018-08-23T05:58:01.399Z,50.63
2018-08-23T05:59:01.400Z,50.63
2018-08-23T06:00:01.396Z,50.63
2018-08-23T06:01:01.392Z,56.25
2018-08-23T06:02:01.398Z,56.25
2018-08-23T06:03:01.394Z,56.25
2018-08-23T06:04:01.390Z,56.25
2018-08-23T06:05:01.388Z,56.25
2018-08-23T06:06:01.403Z,56.25
2018-08-23T06:07:01.380Z,56.25
2018-08-23T06:08:01.380Z,56.25
2018-08-23T06:09:01.389Z,56.25
2018-08-23T06:10:01.383Z,56.25
2018-08-23T06:11:01.380Z,61.88
2018-08-23T06:12:01.377Z,61.88
2018-08-23T06:13:01.375Z,61.88
2018-08-23T06:14:01.376Z,61.88
2018-08-23T06:15:01.378Z,61.88
2018-08-23T06:16:01.365Z,61.88
2018-08-23T06:17:01.363Z,61.88
2018-08-23T06:18:01.363Z,67.50
2018-08-23T06:19:01.360Z,67.50
2018-08-23T06:20:01.405Z,67.50
2018-08-23T06:21:01.357Z,67.50
2018-08-23T06:22:01.358Z,73.13
2018-08-23T06:23:01.357Z,73.13
2018-08-23T06:24:01.361Z,78.75
2018-08-23T06:25:01.351Z,78.75
2018-08-23T06:26:01.348Z,78.75
2018-08-23T06:27:01.346Z,78.75
2018-08-23T06:28:01.346Z,84.38
2018-08-23T06:29:01.350Z,95.63
2018-08-23T06:30:01.349Z,90.00
2018-08-23T06:31:01.346Z,84.38
2018-08-23T06:32:01.346Z,84.38
2018-08-23T06:33:01.466Z,90.00
2018-08-23T06:34:01.398Z,101.25
2018-08-23T06:35:01.340Z,95.63
2018-08-23T06:36:01.336Z,90.00
2018-08-23T06:37:01.337Z,84.38
2018-08-23T06:38:01.335Z,90.00
2018-08-23T06:39:01.336Z,118.13
2018-08-23T06:40:01.334Z,123.75
2018-08-23T06:41:01.326Z,123.75
2018-08-23T06:42:01.326Z,123.75
2018-08-23T06:43:01.331Z,123.75
2018-08-23T06:44:01.327Z,123.75
2018-08-23T06:45:01.322Z,123.75
2018-08-23T06:46:01.371Z,106.88
2018-08-23T06:47:01.329Z,101.25
2018-08-23T06:48:01.321Z,118.13
2018-08-23T06:49:01.321Z,118.13
2018-08-23T06:50:01.320Z,118.13
2018-08-23T06:51:01.333Z,118.13
2018-08-23T06:52:01.344Z,118.13
2018-08-23T06:53:01.317Z,123.75
2018-08-23T06:54:01.322Z,123.75
2018-08-23T06:55:01.316Z,118.13
2018-08-23T06:56:01.319Z,118.13
2018-08-23T06:57:01.340Z,118.13
2018-08-23T06:58:01.315Z,118.13
2018-08-23T06:59:01.418Z,118.13
2018-08-23T07:00:01.315Z,118.13
2018-08-23T07:01:01.317Z,118.13
2018-08-23T07:02:01.314Z,123.75
2018-08-23T07:03:01.313Z,118.13
2018-08-23T07:04:01.309Z,118.13
2018-08-23T07:05:01.311Z,118.13
2018-08-23T07:06:01.310Z,118.13
2018-08-23T07:07:01.324Z,118.13
2018-08-23T07:08:01.310Z,118.13
2018-08-23T07:09:01.309Z,118.13
2018-08-23T07:10:01.306Z,118.13
2018-08-23T07:11:01.313Z,118.13
2018-08-23T07:12:01.306Z,118.13
2018-08-23T07:13:01.310Z,118.13
2018-08-23T07:14:01.306Z,118.13
2018-08-23T07:15:01.313Z,118.13
2018-08-23T07:16:01.319Z,118.13
2018-08-23T07:17:01.322Z,118.13
2018-08-23T07:18:01.306Z,118.13
2018-08-23T07:19:01.306Z,118.13
2018-08-23T07:20:01.309Z,112.50
2018-08-23T07:21:01.329Z,112.50
2018-08-23T07:22:01.307Z,106.88
2018-08-23T07:23:01.307Z,106.88
2018-08-23T07:24:01.310Z,112.50
2018-08-23T07:25:01.306Z,112.50
2018-08-23T07:26:01.313Z,112.50
2018-08-23T07:27:01.325Z,118.13
2018-08-23T07:28:01.309Z,118.13
2018-08-23T07:29:01.313Z,118.13
2018-08-23T07:30:01.346Z,118.13
2018-08-23T07:31:01.310Z,118.13
2018-08-23T07:32:01.321Z,118.13
2018-08-23T07:33:01.375Z,118.13
2018-08-23T07:34:01.332Z,118.13
2018-08-23T07:35:01.311Z,118.13
2018-08-23T07:36:01.341Z,118.13
2018-08-23T07:37:01.312Z,112.50
2018-08-23T07:38:01.319Z,112.50
2018-08-23T07:39:01.323Z,118.13
2018-08-23T07:40:01.316Z,112.50
2018-08-23T07:41:01.318Z,112.50
2018-08-23T07:42:01.367Z,112.50
2018-08-23T07:43:01.357Z,112.50
2018-08-23T07:44:01.324Z,112.50
2018-08-23T07:45:01.326Z,112.50
2018-08-23T07:46:01.319Z,112.50
2018-08-23T07:47:01.324Z,112.50
2018-08-23T07:48:01.321Z,112.50
2018-08-23T07:49:01.321Z,112.50
2018-08-23T07:50:01.323Z,112.50
2018-08-23T07:51:01.321Z,112.50
2018-08-23T07:52:01.324Z,112.50
2018-08-23T07:53:01.375Z,112.50
2018-08-23T07:54:01.332Z,112.50
2018-08-23T07:55:01.333Z,112.50
2018-08-23T07:56:01.330Z,112.50
2018-08-23T07:57:01.395Z,112.50
2018-08-23T07:58:01.331Z,112.50
2018-08-23T07:59:01.332Z,112.50
2018-08-23T08:00:01.343Z,112.50
2018-08-23T08:01:01.337Z,112.50
2018-08-23T08:02:01.336Z,112.50
2018-08-23T08:03:01.333Z,112.50
2018-08-23T08:04:01.335Z,112.50
2018-08-23T08:05:01.340Z,112.50
2018-08-23T08:06:01.345Z,112.50
2018-08-23T08:07:01.345Z,112.50
2018-08-23T08:08:01.345Z,112.50
2018-08-23T08:09:01.345Z,112.50
2018-08-23T08:10:01.344Z,112.50
2018-08-23T08:11:01.350Z,112.50
2018-08-23T08:12:01.351Z,112.50
2018-08-23T08:13:01.348Z,112.50
2018-08-23T08:14:01.351Z,112.50
2018-08-23T08:15:01.460Z,112.50
2018-08-23T08:16:01.355Z,112.50
2018-08-23T08:17:01.349Z,112.50
2018-08-23T08:18:01.360Z,112.50
2018-08-23T08:19:01.359Z,101.25
2018-08-23T08:20:01.360Z,95.63
2018-08-23T08:21:01.463Z,101.25
2018-08-23T08:22:01.357Z,101.25
2018-08-23T08:23:01.364Z,101.25
2018-08-23T08:24:01.359Z,101.25
2018-08-23T08:25:01.361Z,101.25
2018-08-23T08:26:01.365Z,95.63
2018-08-23T08:27:01.405Z,90.00
2018-08-23T08:28:01.375Z,101.25
2018-08-23T08:29:01.368Z,112.50
2018-08-23T08:30:01.368Z,112.50
2018-08-23T08:31:01.395Z,112.50
2018-08-23T08:32:01.377Z,112.50
2018-08-23T08:33:01.377Z,112.50
2018-08-23T08:34:01.378Z,112.50
2018-08-23T08:35:01.376Z,112.50
2018-08-23T08:36:01.376Z,112.50
2018-08-23T08:37:01.375Z,112.50
2018-08-23T08:38:01.381Z,112.50
2018-08-23T08:39:01.384Z,112.50
2018-08-23T08:40:01.388Z,112.50
2018-08-23T08:41:01.385Z,112.50
2018-08-23T08:42:01.413Z,112.50
2018-08-23T08:43:01.386Z,112.50
2018-08-23T08:44:01.396Z,112.50
2018-08-23T08:45:01.389Z,112.50
2018-08-23T08:46:01.390Z,112.50
2018-08-23T08:47:01.391Z,112.50
2018-08-23T08:48:01.401Z,112.50
2018-08-23T08:49:01.451Z,112.50
2018-08-23T08:50:01.396Z,112.50
2018-08-23T08:51:01.404Z,112.50
2018-08-23T08:52:01.406Z,112.50
2018-08-23T08:53:01.404Z,112.50
2018-08-23T08:54:01.413Z,112.50
2018-08-23T08:55:01.407Z,112.50
2018-08-23T08:56:01.413Z,112.50
2018-08-23T08:57:01.468Z,112.50
2018-08-23T08:58:01.421Z,112.50
2018-08-23T08:59:01.423Z,112.50
2018-08-23T09:00:01.421Z,112.50
2018-08-23T09:01:01.420Z,112.50
2018-08-23T09:02:01.421Z,112.50
2018-08-23T09:03:01.431Z,112.50
2018-08-23T09:04:01.431Z,112.50
2018-08-23T09:05:01.425Z,118.13
2018-08-23T09:06:01.426Z,112.50
2018-08-23T09:07:01.435Z,112.50
2018-08-23T09:08:01.431Z,112.50
2018-08-23T09:09:01.435Z,112.50
2018-08-23T09:10:01.435Z,112.50
2018-08-23T09:11:01.443Z,112.50
2018-08-23T09:12:01.479Z,112.50
2018-08-23T09:13:01.446Z,112.50
2018-08-23T09:14:01.530Z,112.50
2018-08-23T09:15:01.445Z,106.88
2018-08-23T09:16:01.496Z,112.50
2018-08-23T09:17:01.450Z,112.50
2018-08-23T09:18:01.462Z,112.50
2018-08-23T09:19:01.456Z,112.50
2018-08-23T09:20:01.460Z,112.50
2018-08-23T09:21:01.458Z,112.50
2018-08-23T09:22:01.464Z,106.88
2018-08-23T09:23:01.467Z,106.88
2018-08-23T09:24:01.467Z,106.88
2018-08-23T09:25:01.471Z,106.88
2018-08-23T09:26:01.477Z,106.88
2018-08-23T09:27:01.480Z,106.88
2018-08-23T09:28:01.479Z,106.88
2018-08-23T09:29:01.480Z,106.88
2018-08-23T09:30:01.481Z,106.88
2018-08-23T09:31:01.486Z,106.88
2018-08-23T09:32:01.502Z,112.50
2018-08-23T09:33:01.495Z,112.50
2018-08-23T09:34:01.492Z,112.50
2018-08-23T09:35:01.540Z,112.50
2018-08-23T09:36:01.496Z,112.50
2018-08-23T09:37:01.498Z,106.88
2018-08-23T09:38:01.514Z,106.88
2018-08-23T09:39:01.505Z,106.88
2018-08-23T09:40:01.512Z,106.88
2018-08-23T09:41:01.512Z,106.88
2018-08-23T09:42:01.521Z,106.88
2018-08-23T09:43:01.553Z,106.88
2018-08-23T09:44:01.524Z,106.88
2018-08-23T09:45:01.522Z,106.88
2018-08-23T09:46:01.526Z,106.88
2018-08-23T09:47:01.529Z,106.88
2018-08-23T09:48:01.532Z,106.88
2018-08-23T09:49:01.531Z,106.88
2018-08-23T09:50:01.587Z,106.88
2018-08-23T09:51:01.596Z,106.88
2018-08-23T09:52:01.539Z,106.88
2018-08-23T09:53:01.541Z,106.88
2018-08-23T09:54:01.545Z,106.88
2018-08-23T09:55:01.547Z,106.88
2018-08-23T09:56:01.553Z,106.88
2018-08-23T09:57:01.554Z,106.88
2018-08-23T09:58:01.556Z,112.50
2018-08-23T09:59:01.565Z,112.50
2018-08-23T10:00:01.564Z,112.50
2018-08-23T10:01:01.562Z,112.50
2018-08-23T10:02:01.569Z,106.88
2018-08-23T10:03:01.575Z,106.88
2018-08-23T10:04:01.571Z,106.88
2018-08-23T10:05:01.581Z,112.50
2018-08-23T10:06:01.586Z,106.88
2018-08-23T10:07:01.585Z,106.88
2018-08-23T10:08:01.587Z,106.88
2018-08-23T10:09:01.585Z,106.88
2018-08-23T10:10:01.594Z,106.88
2018-08-23T10:11:01.598Z,106.88
2018-08-23T10:12:01.594Z,112.50
2018-08-23T10:13:01.596Z,112.50
2018-08-23T10:14:01.599Z,112.50
2018-08-23T10:15:01.600Z,112.50
2018-08-23T10:16:01.604Z,112.50
2018-08-23T10:17:01.611Z,112.50
2018-08-23T10:18:01.607Z,112.50
2018-08-23T10:19:01.612Z,112.50
2018-08-23T10:20:01.617Z,106.88
2018-08-23T10:21:01.615Z,112.50
2018-08-23T10:22:01.626Z,112.50
2018-08-23T10:23:01.624Z,118.13
2018-08-23T10:24:01.624Z,112.50
2018-08-23T10:25:01.630Z,112.50
2018-08-23T10:26:01.630Z,112.50
2018-08-23T10:27:01.636Z,112.50
2018-08-23T10:28:01.635Z,112.50
2018-08-23T10:29:01.639Z,112.50
2018-08-23T10:30:01.641Z,112.50
2018-08-23T10:31:01.642Z,112.50
2018-08-23T10:32:01.702Z,112.50
2018-08-23T10:33:01.648Z,118.13
2018-08-23T10:34:01.649Z,112.50
2018-08-23T10:35:01.661Z,112.50
2018-08-23T10:36:01.664Z,112.50
2018-08-23T10:37:01.665Z,112.50
2018-08-23T10:38:01.669Z,112.50
2018-08-23T10:39:01.667Z,112.50
2018-08-23T10:40:01.667Z,112.50
2018-08-23T10:41:01.673Z,112.50
2018-08-23T10:42:01.677Z,112.50
2018-08-23T10:43:01.678Z,112.50
2018-08-23T10:44:01.679Z,112.50
2018-08-23T10:45:01.689Z,112.50
2018-08-23T10:46:01.687Z,112.50
2018-08-23T10:47:01.689Z,112.50
2018-08-23T10:48:01.689Z,112.50
2018-08-23T10:49:01.696Z,112.50
2018-08-23T10:50:01.697Z,112.50
2018-08-23T10:51:01.784Z,112.50
2018-08-23T10:52:01.705Z,112.50
2018-08-23T10:53:01.707Z,112.50
2018-08-23T10:54:01.714Z,112.50
2018-08-23T10:55:01.716Z,112.50
2018-08-23T10:56:01.738Z,112.50
2018-08-23T10:57:01.717Z,112.50
2018-08-23T10:58:01.718Z,112.50
2018-08-23T10:59:01.759Z,112.50
2018-08-23T11:00:01.733Z,112.50
2018-08-23T11:01:01.733Z,112.50
2018-08-23T11:02:01.740Z,112.50
2018-08-23T11:03:01.741Z,112.50
2018-08-23T11:04:01.741Z,112.50
2018-08-23T11:05:01.747Z,112.50
2018-08-23T11:06:01.743Z,112.50
2018-08-23T11:07:01.754Z,112.50
2018-08-23T11:08:01.752Z,112.50
2018-08-23T11:09:01.757Z,112.50
2018-08-23T11:10:01.756Z,112.50
2018-08-23T11:11:01.767Z,112.50
2018-08-23T11:12:01.767Z,118.13
2018-08-23T11:13:01.771Z,118.13
2018-08-23T11:14:01.770Z,118.13
2018-08-23T11:15:01.836Z,118.13
2018-08-23T11:16:01.779Z,118.13
2018-08-23T11:17:01.988Z,118.13
2018-08-23T11:18:01.787Z,118.13
2018-08-23T11:19:01.784Z,118.13
2018-08-23T11:20:01.795Z,118.13
2018-08-23T11:21:01.811Z,118.13
2018-08-23T11:22:01.794Z,118.13
2018-08-23T11:23:01.832Z,112.50
2018-08-23T11:24:01.810Z,112.50
2018-08-23T11:25:01.806Z,112.50
2018-08-23T11:26:01.816Z,112.50
2018-08-23T11:27:01.820Z,112.50
2018-08-23T11:28:01.822Z,112.50
2018-08-23T11:29:01.818Z,112.50
2018-08-23T11:30:01.893Z,118.13
2018-08-23T11:31:01.828Z,118.13
2018-08-23T11:32:01.838Z,118.13
2018-08-23T11:33:01.834Z,118.13
2018-08-23T11:34:01.840Z,118.13
2018-08-23T11:35:01.854Z,118.13
2018-08-23T11:36:01.849Z,118.13
2018-08-23T11:37:01.852Z,118.13
2018-08-23T11:38:01.856Z,118.13
2018-08-23T11:39:01.858Z,118.13
2018-08-23T11:40:01.867Z,118.13
2018-08-23T11:41:01.872Z,118.13
2018-08-23T11:42:01.873Z,118.13
2018-08-23T11:43:01.881Z,118.13
2018-08-23T11:44:01.877Z,118.13
2018-08-23T11:45:01.886Z,118.13
2018-08-23T11:46:01.920Z,118.13
2018-08-23T11:47:01.899Z,118.13
2018-08-23T11:48:01.892Z,118.13
2018-08-23T11:49:02.011Z,123.75
2018-08-23T11:50:01.907Z,123.75
2018-08-23T11:51:01.907Z,123.75
2018-08-23T11:52:01.909Z,123.75
2018-08-23T11:53:01.941Z,123.75
2018-08-23T11:54:02.053Z,123.75
2018-08-23T11:55:01.925Z,118.13
2018-08-23T11:56:01.927Z,118.13
2018-08-23T11:57:01.931Z,118.13
2018-08-23T11:58:01.987Z,118.13
2018-08-23T11:59:01.946Z,118.13
2018-08-23T12:00:01.945Z,118.13
2018-08-23T12:01:01.944Z,118.13
2018-08-23T12:02:01.951Z,112.50
2018-08-23T12:03:01.955Z,118.13
2018-08-23T12:04:01.957Z,118.13
2018-08-23T12:05:01.968Z,118.13
2018-08-23T12:06:01.971Z,118.13
2018-08-23T12:07:01.973Z,118.13
2018-08-23T12:08:01.976Z,123.75
2018-08-23T12:09:01.979Z,123.75
2018-08-23T12:10:02.019Z,123.75
2018-08-23T12:11:01.984Z,123.75
2018-08-23T12:12:01.997Z,118.13
2018-08-23T12:13:01.993Z,118.13
2018-08-23T12:14:01.999Z,123.75
2018-08-23T12:15:02.007Z,123.75
2018-08-23T12:16:02.031Z,123.75
2018-08-23T12:17:02.015Z,123.75
2018-08-23T12:18:02.017Z,123.75
2018-08-23T12:19:02.025Z,123.75
2018-08-23T12:20:02.032Z,123.75
2018-08-23T12:21:02.037Z,123.75
2018-08-23T12:22:02.041Z,118.13
2018-08-23T12:23:02.040Z,118.13
2018-08-23T12:24:02.044Z,118.13
2018-08-23T12:25:02.048Z,118.13
2018-08-23T12:26:02.216Z,118.13
2018-08-23T12:27:02.057Z,118.13
2018-08-23T12:28:02.063Z,118.13
2018-08-23T12:29:02.068Z,123.75
2018-08-23T12:30:02.088Z,123.75
2018-08-23T12:31:02.082Z,123.75
2018-08-23T12:32:02.081Z,123.75
2018-08-23T12:33:02.087Z,123.75
2018-08-23T12:34:02.097Z,129.38
2018-08-23T12:35:02.162Z,129.38
2018-08-23T12:36:02.105Z,129.38
2018-08-23T12:37:02.105Z,129.38
2018-08-23T12:38:02.143Z,129.38
2018-08-23T12:39:02.121Z,135.00
2018-08-23T12:40:02.125Z,129.38
2018-08-23T12:41:02.143Z,129.38
2018-08-23T12:42:02.138Z,129.38
2018-08-23T12:43:02.139Z,135.00
2018-08-23T12:44:02.139Z,135.00
2018-08-23T12:45:02.150Z,135.00
2018-08-23T12:46:02.152Z,135.00
2018-08-23T12:47:02.186Z,135.00
2018-08-23T12:48:02.168Z,140.63
2018-08-23T12:49:02.165Z,140.63
2018-08-23T12:50:02.179Z,146.25